sensor_id;sensor_type;location;lat;lon;timestamp;P1;durP1;ratioP1;P2;durP2;ratioP2
66523;SDS011;53350;52.210;5.160;2022-07-04T00:01:38;8.05;;;2.47;;
66523;SDS011;53350;52.210;5.160;2022-07-04T00:04:04;5.90;;;2.28;;
66523;SDS011;53350;52.210;5.160;2022-07-04T00:06:31;7.32;;;3.10;;
66523;SDS011;53350;52.210;5.160;2022-07-04T00:08:57;5.35;;;2.30;;
66523;SDS011;53350;52.210;5.160;2022-07-04T00:11:23;8.40;;;2.58;;
66523;SDS011;53350;52.210;5.160;2022-07-04T00:13:51;7.75;;;2.50;;
66523;SDS011;53350;52.210;5.160;2022-07-04T00:16:18;5.30;;;2.17;;
66523;SDS011;53350;52.210;5.160;2022-07-04T00:18:44;5.75;;;2.20;;
66523;SDS011;53350;52.210;5.160;2022-07-04T00:21:10;4.78;;;2.08;;
66523;SDS011;53350;52.210;5.160;2022-07-04T00:23:37;5.85;;;2.83;;
66523;SDS011;53350;52.210;5.160;2022-07-04T00:26:03;7.32;;;3.00;;
66523;SDS011;53350;52.210;5.160;2022-07-04T00:28:30;9.07;;;2.90;;
66523;SDS011;53350;52.210;5.160;2022-07-04T00:30:57;9.25;;;2.70;;
66523;SDS011;53350;52.210;5.160;2022-07-04T00:33:24;10.48;;;2.63;;
66523;SDS011;53350;52.210;5.160;2022-07-04T00:35:50;6.03;;;2.80;;
66523;SDS011;53350;52.210;5.160;2022-07-04T00:38:17;7.78;;;2.60;;
66523;SDS011;53350;52.210;5.160;2022-07-04T00:40:43;6.78;;;2.55;;
66523;SDS011;53350;52.210;5.160;2022-07-04T00:43:10;7.70;;;2.58;;
66523;SDS011;53350;52.210;5.160;2022-07-04T00:45:36;7.22;;;2.53;;
66523;SDS011;53350;52.210;5.160;2022-07-04T00:48:04;6.75;;;2.28;;
66523;SDS011;53350;52.210;5.160;2022-07-04T00:50:31;7.38;;;2.67;;
66523;SDS011;53350;52.210;5.160;2022-07-04T00:52:57;7.55;;;2.40;;
66523;SDS011;53350;52.210;5.160;2022-07-04T00:55:25;9.27;;;2.40;;
66523;SDS011;53350;52.210;5.160;2022-07-04T00:57:52;6.75;;;2.58;;
66523;SDS011;53350;52.210;5.160;2022-07-04T01:00:18;7.38;;;2.33;;
66523;SDS011;53350;52.210;5.160;2022-07-04T01:02:45;9.80;;;2.15;;
66523;SDS011;53350;52.210;5.160;2022-07-04T01:05:14;4.88;;;2.00;;
66523;SDS011;53350;52.210;5.160;2022-07-04T01:10:08;9.77;;;2.55;;
66523;SDS011;53350;52.210;5.160;2022-07-04T01:12:35;4.28;;;2.30;;
66523;SDS011;53350;52.210;5.160;2022-07-04T01:15:02;5.18;;;2.42;;
66523;SDS011;53350;52.210;5.160;2022-07-04T01:17:29;6.50;;;2.30;;
66523;SDS011;53350;52.210;5.160;2022-07-04T01:19:56;5.95;;;2.38;;
66523;SDS011;53350;52.210;5.160;2022-07-04T01:22:24;8.98;;;2.47;;
66523;SDS011;53350;52.210;5.160;2022-07-04T01:24:50;7.93;;;2.45;;
66523;SDS011;53350;52.210;5.160;2022-07-04T01:27:17;9.75;;;2.83;;
66523;SDS011;53350;52.210;5.160;2022-07-04T01:29:44;6.93;;;2.55;;
66523;SDS011;53350;52.210;5.160;2022-07-04T01:32:11;5.72;;;2.30;;
66523;SDS011;53350;52.210;5.160;2022-07-04T01:34:37;8.40;;;2.60;;
66523;SDS011;53350;52.210;5.160;2022-07-04T01:37:04;8.02;;;2.70;;
66523;SDS011;53350;52.210;5.160;2022-07-04T01:39:33;5.53;;;2.40;;
66523;SDS011;53350;52.210;5.160;2022-07-04T01:41:59;9.25;;;2.90;;
66523;SDS011;53350;52.210;5.160;2022-07-04T01:44:26;6.80;;;2.67;;
66523;SDS011;53350;52.210;5.160;2022-07-04T01:46:52;8.40;;;2.90;;
66523;SDS011;53350;52.210;5.160;2022-07-04T01:49:19;8.23;;;2.97;;
66523;SDS011;53350;52.210;5.160;2022-07-04T01:51:46;8.45;;;3.15;;
66523;SDS011;53350;52.210;5.160;2022-07-04T01:54:13;12.32;;;3.58;;
66523;SDS011;53350;52.210;5.160;2022-07-04T01:56:41;9.18;;;3.60;;
66523;SDS011;53350;52.210;5.160;2022-07-04T01:59:08;7.30;;;3.17;;
66523;SDS011;53350;52.210;5.160;2022-07-04T02:01:34;10.32;;;3.45;;
66523;SDS011;53350;52.210;5.160;2022-07-04T02:04:01;10.23;;;3.58;;
66523;SDS011;53350;52.210;5.160;2022-07-04T02:06:28;11.98;;;3.90;;
66523;SDS011;53350;52.210;5.160;2022-07-04T02:08:55;6.93;;;3.33;;
66523;SDS011;53350;52.210;5.160;2022-07-04T02:11:42;11.50;;;3.53;;
66523;SDS011;53350;52.210;5.160;2022-07-04T02:14:27;9.48;;;3.25;;
66523;SDS011;53350;52.210;5.160;2022-07-04T02:16:53;10.77;;;3.53;;
66523;SDS011;53350;52.210;5.160;2022-07-04T02:19:19;11.20;;;3.58;;
66523;SDS011;53350;52.210;5.160;2022-07-04T02:21:46;8.40;;;3.10;;
66523;SDS011;53350;52.210;5.160;2022-07-04T02:24:12;9.27;;;3.40;;
66523;SDS011;53350;52.210;5.160;2022-07-04T02:26:39;8.57;;;3.20;;
66523;SDS011;53350;52.210;5.160;2022-07-04T02:29:07;8.65;;;3.22;;
66523;SDS011;53350;52.210;5.160;2022-07-04T02:31:33;9.57;;;3.40;;
66523;SDS011;53350;52.210;5.160;2022-07-04T02:34:00;11.30;;;3.40;;
66523;SDS011;53350;52.210;5.160;2022-07-04T02:36:26;10.65;;;2.90;;
66523;SDS011;53350;52.210;5.160;2022-07-04T02:38:52;11.05;;;3.53;;
66523;SDS011;53350;52.210;5.160;2022-07-04T02:41:19;8.35;;;3.10;;
66523;SDS011;53350;52.210;5.160;2022-07-04T02:43:45;7.95;;;3.17;;
66523;SDS011;53350;52.210;5.160;2022-07-04T02:46:13;9.05;;;3.17;;
66523;SDS011;53350;52.210;5.160;2022-07-04T02:48:39;7.65;;;3.15;;
66523;SDS011;53350;52.210;5.160;2022-07-04T02:51:06;11.43;;;3.10;;
66523;SDS011;53350;52.210;5.160;2022-07-04T02:53:32;7.95;;;3.35;;
66523;SDS011;53350;52.210;5.160;2022-07-04T02:55:59;9.95;;;3.17;;
66523;SDS011;53350;52.210;5.160;2022-07-04T02:58:28;7.85;;;3.50;;
66523;SDS011;53350;52.210;5.160;2022-07-04T03:00:55;6.60;;;3.13;;
66523;SDS011;53350;52.210;5.160;2022-07-04T03:03:23;7.28;;;3.45;;
66523;SDS011;53350;52.210;5.160;2022-07-04T03:05:49;8.93;;;3.55;;
66523;SDS011;53350;52.210;5.160;2022-07-04T03:08:15;10.25;;;4.57;;
66523;SDS011;53350;52.210;5.160;2022-07-04T03:10:42;7.40;;;3.38;;
66523;SDS011;53350;52.210;5.160;2022-07-04T03:13:09;8.40;;;3.80;;
66523;SDS011;53350;52.210;5.160;2022-07-04T03:15:36;9.65;;;4.22;;
66523;SDS011;53350;52.210;5.160;2022-07-04T03:18:02;11.30;;;3.90;;
66523;SDS011;53350;52.210;5.160;2022-07-04T03:20:30;10.23;;;4.50;;
66523;SDS011;53350;52.210;5.160;2022-07-04T03:22:56;10.35;;;4.40;;
66523;SDS011;53350;52.210;5.160;2022-07-04T03:25:23;12.60;;;5.18;;
66523;SDS011;53350;52.210;5.160;2022-07-04T03:27:49;8.80;;;4.60;;
66523;SDS011;53350;52.210;5.160;2022-07-04T03:30:16;9.80;;;4.35;;
66523;SDS011;53350;52.210;5.160;2022-07-04T03:32:42;10.82;;;4.75;;
66523;SDS011;53350;52.210;5.160;2022-07-04T03:35:09;12.18;;;5.03;;
66523;SDS011;53350;52.210;5.160;2022-07-04T03:37:36;9.77;;;5.20;;
66523;SDS011;53350;52.210;5.160;2022-07-04T03:40:03;10.73;;;4.85;;
66523;SDS011;53350;52.210;5.160;2022-07-04T03:42:31;9.27;;;4.80;;
66523;SDS011;53350;52.210;5.160;2022-07-04T03:44:57;14.02;;;5.50;;
66523;SDS011;53350;52.210;5.160;2022-07-04T03:47:24;10.35;;;6.13;;
66523;SDS011;53350;52.210;5.160;2022-07-04T03:49:50;14.15;;;5.82;;
66523;SDS011;53350;52.210;5.160;2022-07-04T03:52:17;11.43;;;5.50;;
66523;SDS011;53350;52.210;5.160;2022-07-04T03:54:45;10.80;;;5.55;;
66523;SDS011;53350;52.210;5.160;2022-07-04T03:57:11;11.40;;;5.43;;
66523;SDS011;53350;52.210;5.160;2022-07-04T03:59:38;13.05;;;5.70;;
66523;SDS011;53350;52.210;5.160;2022-07-04T04:02:04;9.07;;;5.65;;
66523;SDS011;53350;52.210;5.160;2022-07-04T04:04:30;13.88;;;5.68;;
66523;SDS011;53350;52.210;5.160;2022-07-04T04:07:15;12.73;;;5.85;;
66523;SDS011;53350;52.210;5.160;2022-07-04T04:09:41;10.73;;;4.97;;
66523;SDS011;53350;52.210;5.160;2022-07-04T04:12:09;12.75;;;5.57;;
66523;SDS011;53350;52.210;5.160;2022-07-04T04:14:36;13.40;;;5.57;;
66523;SDS011;53350;52.210;5.160;2022-07-04T04:17:03;10.45;;;5.30;;
66523;SDS011;53350;52.210;5.160;2022-07-04T04:19:29;13.05;;;5.05;;
66523;SDS011;53350;52.210;5.160;2022-07-04T04:21:56;11.90;;;4.95;;
66523;SDS011;53350;52.210;5.160;2022-07-04T04:24:22;13.77;;;5.00;;
66523;SDS011;53350;52.210;5.160;2022-07-04T04:26:49;11.95;;;5.20;;
66523;SDS011;53350;52.210;5.160;2022-07-04T04:29:17;15.85;;;5.30;;
66523;SDS011;53350;52.210;5.160;2022-07-04T04:31:43;9.48;;;4.63;;
66523;SDS011;53350;52.210;5.160;2022-07-04T04:34:10;11.80;;;4.80;;
66523;SDS011;53350;52.210;5.160;2022-07-04T04:36:37;9.25;;;4.78;;
66523;SDS011;53350;52.210;5.160;2022-07-04T04:39:03;10.65;;;4.60;;
66523;SDS011;53350;52.210;5.160;2022-07-04T04:41:29;12.90;;;5.22;;
66523;SDS011;53350;52.210;5.160;2022-07-04T04:43:56;13.38;;;5.30;;
66523;SDS011;53350;52.210;5.160;2022-07-04T04:46:24;11.48;;;4.93;;
66523;SDS011;53350;52.210;5.160;2022-07-04T04:48:50;10.30;;;4.47;;
66523;SDS011;53350;52.210;5.160;2022-07-04T04:51:17;10.75;;;5.10;;
66523;SDS011;53350;52.210;5.160;2022-07-04T04:53:43;12.10;;;4.68;;
66523;SDS011;53350;52.210;5.160;2022-07-04T04:56:10;10.25;;;4.30;;
66523;SDS011;53350;52.210;5.160;2022-07-04T04:58:36;10.77;;;4.32;;
66523;SDS011;53350;52.210;5.160;2022-07-04T05:01:03;14.32;;;4.40;;
66523;SDS011;53350;52.210;5.160;2022-07-04T05:03:30;14.52;;;4.70;;
66523;SDS011;53350;52.210;5.160;2022-07-04T05:05:57;9.27;;;3.83;;
66523;SDS011;53350;52.210;5.160;2022-07-04T05:08:23;11.82;;;4.32;;
66523;SDS011;53350;52.210;5.160;2022-07-04T05:10:50;11.85;;;4.18;;
66523;SDS011;53350;52.210;5.160;2022-07-04T05:13:17;11.40;;;3.90;;
66523;SDS011;53350;52.210;5.160;2022-07-04T05:15:44;8.38;;;3.85;;
66523;SDS011;53350;52.210;5.160;2022-07-04T05:18:11;9.43;;;3.40;;
66523;SDS011;53350;52.210;5.160;2022-07-04T05:20:39;10.50;;;3.90;;
66523;SDS011;53350;52.210;5.160;2022-07-04T05:23:05;11.52;;;4.35;;
66523;SDS011;53350;52.210;5.160;2022-07-04T05:25:32;9.38;;;3.30;;
66523;SDS011;53350;52.210;5.160;2022-07-04T05:27:58;11.27;;;4.00;;
66523;SDS011;53350;52.210;5.160;2022-07-04T05:30:25;17.27;;;3.72;;
66523;SDS011;53350;52.210;5.160;2022-07-04T05:32:52;12.13;;;4.40;;
66523;SDS011;53350;52.210;5.160;2022-07-04T05:35:19;12.00;;;3.80;;
66523;SDS011;53350;52.210;5.160;2022-07-04T05:37:46;13.52;;;4.05;;
66523;SDS011;53350;52.210;5.160;2022-07-04T05:40:13;14.00;;;3.97;;
66523;SDS011;53350;52.210;5.160;2022-07-04T05:42:39;7.93;;;3.63;;
66523;SDS011;53350;52.210;5.160;2022-07-04T05:45:06;13.60;;;3.90;;
66523;SDS011;53350;52.210;5.160;2022-07-04T05:47:33;14.93;;;3.83;;
66523;SDS011;53350;52.210;5.160;2022-07-04T05:49:59;12.75;;;3.95;;
66523;SDS011;53350;52.210;5.160;2022-07-04T05:52:26;9.95;;;2.95;;
66523;SDS011;53350;52.210;5.160;2022-07-04T05:54:53;9.68;;;3.33;;
66523;SDS011;53350;52.210;5.160;2022-07-04T05:57:20;14.93;;;3.35;;
66523;SDS011;53350;52.210;5.160;2022-07-04T05:59:46;9.38;;;3.33;;
66523;SDS011;53350;52.210;5.160;2022-07-04T06:02:13;10.32;;;3.28;;
66523;SDS011;53350;52.210;5.160;2022-07-04T06:04:41;12.95;;;3.45;;
66523;SDS011;53350;52.210;5.160;2022-07-04T06:07:08;11.63;;;3.20;;
66523;SDS011;53350;52.210;5.160;2022-07-04T06:09:35;11.50;;;3.33;;
66523;SDS011;53350;52.210;5.160;2022-07-04T06:12:03;12.38;;;3.42;;
66523;SDS011;53350;52.210;5.160;2022-07-04T06:14:30;13.50;;;3.65;;
66523;SDS011;53350;52.210;5.160;2022-07-04T06:16:56;15.73;;;3.65;;
66523;SDS011;53350;52.210;5.160;2022-07-04T06:19:23;15.15;;;4.07;;
66523;SDS011;53350;52.210;5.160;2022-07-04T06:21:49;11.75;;;3.78;;
66523;SDS011;53350;52.210;5.160;2022-07-04T06:24:16;11.98;;;3.40;;
66523;SDS011;53350;52.210;5.160;2022-07-04T06:26:42;12.50;;;3.22;;
66523;SDS011;53350;52.210;5.160;2022-07-04T06:29:10;17.38;;;4.22;;
66523;SDS011;53350;52.210;5.160;2022-07-04T06:31:37;9.23;;;3.38;;
66523;SDS011;53350;52.210;5.160;2022-07-04T06:34:03;16.30;;;3.70;;
66523;SDS011;53350;52.210;5.160;2022-07-04T06:36:47;12.52;;;3.90;;
66523;SDS011;53350;52.210;5.160;2022-07-04T06:39:14;12.55;;;3.78;;
66523;SDS011;53350;52.210;5.160;2022-07-04T06:41:40;11.77;;;3.63;;
66523;SDS011;53350;52.210;5.160;2022-07-04T06:44:06;15.55;;;3.80;;
66523;SDS011;53350;52.210;5.160;2022-07-04T06:46:34;6.70;;;2.17;;
66523;SDS011;53350;52.210;5.160;2022-07-04T06:49:01;13.63;;;3.60;;
66523;SDS011;53350;52.210;5.160;2022-07-04T06:51:27;10.00;;;3.03;;
66523;SDS011;53350;52.210;5.160;2022-07-04T06:53:54;15.88;;;3.80;;
66523;SDS011;53350;52.210;5.160;2022-07-04T06:56:20;10.43;;;2.80;;
66523;SDS011;53350;52.210;5.160;2022-07-04T06:58:46;10.48;;;2.88;;
66523;SDS011;53350;52.210;5.160;2022-07-04T07:01:14;11.57;;;2.58;;
66523;SDS011;53350;52.210;5.160;2022-07-04T07:03:42;8.80;;;2.42;;
66523;SDS011;53350;52.210;5.160;2022-07-04T07:06:08;8.75;;;2.45;;
66523;SDS011;53350;52.210;5.160;2022-07-04T07:08:34;12.60;;;2.58;;
66523;SDS011;53350;52.210;5.160;2022-07-04T07:11:01;9.88;;;2.47;;
66523;SDS011;53350;52.210;5.160;2022-07-04T07:13:37;8.02;;;2.60;;
66523;SDS011;53350;52.210;5.160;2022-07-04T07:16:04;5.78;;;2.20;;
66523;SDS011;53350;52.210;5.160;2022-07-04T07:18:30;10.38;;;2.17;;
66523;SDS011;53350;52.210;5.160;2022-07-04T07:20:58;9.40;;;2.28;;
66523;SDS011;53350;52.210;5.160;2022-07-04T07:23:25;8.98;;;2.45;;
66523;SDS011;53350;52.210;5.160;2022-07-04T07:25:51;8.55;;;2.10;;
66523;SDS011;53350;52.210;5.160;2022-07-04T07:28:17;9.82;;;2.30;;
66523;SDS011;53350;52.210;5.160;2022-07-04T07:30:44;6.97;;;2.30;;
66523;SDS011;53350;52.210;5.160;2022-07-04T07:33:10;11.90;;;2.20;;
66523;SDS011;53350;52.210;5.160;2022-07-04T07:35:37;8.43;;;2.22;;
66523;SDS011;53350;52.210;5.160;2022-07-04T07:38:05;10.02;;;2.65;;
66523;SDS011;53350;52.210;5.160;2022-07-04T07:40:32;10.85;;;2.42;;
66523;SDS011;53350;52.210;5.160;2022-07-04T07:42:58;8.20;;;2.13;;
66523;SDS011;53350;52.210;5.160;2022-07-04T07:45:25;9.55;;;2.28;;
66523;SDS011;53350;52.210;5.160;2022-07-04T07:47:51;7.90;;;2.13;;
66523;SDS011;53350;52.210;5.160;2022-07-04T07:50:18;9.18;;;2.00;;
66523;SDS011;53350;52.210;5.160;2022-07-04T07:52:44;7.85;;;1.90;;
66523;SDS011;53350;52.210;5.160;2022-07-04T07:55:12;8.13;;;1.98;;
66523;SDS011;53350;52.210;5.160;2022-07-04T07:57:38;8.48;;;1.77;;
66523;SDS011;53350;52.210;5.160;2022-07-04T08:00:05;7.82;;;2.22;;
66523;SDS011;53350;52.210;5.160;2022-07-04T08:02:33;7.20;;;1.92;;
66523;SDS011;53350;52.210;5.160;2022-07-04T08:05:28;7.30;;;1.80;;
66523;SDS011;53350;52.210;5.160;2022-07-04T08:07:55;5.57;;;1.65;;
66523;SDS011;53350;52.210;5.160;2022-07-04T08:10:22;6.28;;;1.67;;
66523;SDS011;53350;52.210;5.160;2022-07-04T08:12:49;4.95;;;1.60;;
66523;SDS011;53350;52.210;5.160;2022-07-04T08:15:16;6.03;;;1.60;;
66523;SDS011;53350;52.210;5.160;2022-07-04T08:17:43;7.15;;;1.70;;
66523;SDS011;53350;52.210;5.160;2022-07-04T08:20:11;7.40;;;1.50;;
66523;SDS011;53350;52.210;5.160;2022-07-04T08:22:38;4.07;;;1.55;;
66523;SDS011;53350;52.210;5.160;2022-07-04T08:25:04;6.72;;;1.90;;
66523;SDS011;53350;52.210;5.160;2022-07-04T08:27:32;4.57;;;1.75;;
66523;SDS011;53350;52.210;5.160;2022-07-04T08:29:59;6.07;;;1.63;;
66523;SDS011;53350;52.210;5.160;2022-07-04T08:32:25;6.55;;;1.50;;
66523;SDS011;53350;52.210;5.160;2022-07-04T08:34:52;5.40;;;1.73;;
66523;SDS011;53350;52.210;5.160;2022-07-04T08:37:19;5.40;;;2.03;;
66523;SDS011;53350;52.210;5.160;2022-07-04T08:39:46;6.05;;;1.50;;
66523;SDS011;53350;52.210;5.160;2022-07-04T08:42:14;4.00;;;1.38;;
66523;SDS011;53350;52.210;5.160;2022-07-04T08:44:45;5.80;;;1.50;;
66523;SDS011;53350;52.210;5.160;2022-07-04T08:47:14;4.60;;;1.30;;
66523;SDS011;53350;52.210;5.160;2022-07-04T08:49:44;5.82;;;1.15;;
66523;SDS011;53350;52.210;5.160;2022-07-04T08:52:17;5.57;;;1.42;;
66523;SDS011;53350;52.210;5.160;2022-07-04T08:54:52;3.72;;;1.30;;
66523;SDS011;53350;52.210;5.160;2022-07-04T08:57:38;8.77;;;1.50;;
66523;SDS011;53350;52.210;5.160;2022-07-04T09:00:24;5.18;;;1.35;;
66523;SDS011;53350;52.210;5.160;2022-07-04T09:02:51;5.45;;;1.52;;
66523;SDS011;53350;52.210;5.160;2022-07-04T09:05:17;4.20;;;1.25;;
66523;SDS011;53350;52.210;5.160;2022-07-04T09:07:44;4.97;;;1.30;;
66523;SDS011;53350;52.210;5.160;2022-07-04T09:10:11;6.20;;;1.40;;
66523;SDS011;53350;52.210;5.160;2022-07-04T09:12:37;3.80;;;1.50;;
66523;SDS011;53350;52.210;5.160;2022-07-04T09:15:04;5.70;;;2.10;;
66523;SDS011;53350;52.210;5.160;2022-07-04T09:17:33;7.78;;;1.40;;
66523;SDS011;53350;52.210;5.160;2022-07-04T09:20:10;4.20;;;1.50;;
66523;SDS011;53350;52.210;5.160;2022-07-04T09:22:38;5.22;;;1.30;;
66523;SDS011;53350;52.210;5.160;2022-07-04T09:25:05;3.63;;;1.27;;
66523;SDS011;53350;52.210;5.160;2022-07-04T09:27:33;3.47;;;1.40;;
66523;SDS011;53350;52.210;5.160;2022-07-04T09:30:00;5.78;;;1.40;;
66523;SDS011;53350;52.210;5.160;2022-07-04T09:35:06;4.20;;;1.42;;
66523;SDS011;53350;52.210;5.160;2022-07-04T09:37:34;5.32;;;1.40;;
66523;SDS011;53350;52.210;5.160;2022-07-04T09:40:03;4.57;;;1.40;;
66523;SDS011;53350;52.210;5.160;2022-07-04T09:42:40;2.92;;;1.30;;
66523;SDS011;53350;52.210;5.160;2022-07-04T09:45:08;5.32;;;1.25;;
66523;SDS011;53350;52.210;5.160;2022-07-04T09:47:37;3.85;;;0.90;;
66523;SDS011;53350;52.210;5.160;2022-07-04T09:50:07;2.70;;;1.30;;
66523;SDS011;53350;52.210;5.160;2022-07-04T09:52:45;2.50;;;1.10;;
66523;SDS011;53350;52.210;5.160;2022-07-04T09:55:12;4.20;;;1.00;;
66523;SDS011;53350;52.210;5.160;2022-07-04T09:57:46;5.75;;;1.30;;
66523;SDS011;53350;52.210;5.160;2022-07-04T10:00:16;2.97;;;1.15;;
66523;SDS011;53350;52.210;5.160;2022-07-04T10:02:45;3.03;;;1.40;;
66523;SDS011;53350;52.210;5.160;2022-07-04T10:05:12;3.05;;;1.10;;
66523;SDS011;53350;52.210;5.160;2022-07-04T10:07:39;3.40;;;1.20;;
66523;SDS011;53350;52.210;5.160;2022-07-04T10:10:21;2.65;;;1.35;;
66523;SDS011;53350;52.210;5.160;2022-07-04T10:12:52;1.73;;;1.05;;
66523;SDS011;53350;52.210;5.160;2022-07-04T10:15:20;3.60;;;1.20;;
66523;SDS011;53350;52.210;5.160;2022-07-04T10:17:48;5.03;;;1.27;;
66523;SDS011;53350;52.210;5.160;2022-07-04T10:20:15;1.80;;;1.00;;
66523;SDS011;53350;52.210;5.160;2022-07-04T10:22:41;3.38;;;0.90;;
66523;SDS011;53350;52.210;5.160;2022-07-04T10:25:09;7.80;;;1.30;;
66523;SDS011;53350;52.210;5.160;2022-07-04T10:27:36;3.38;;;1.10;;
66523;SDS011;53350;52.210;5.160;2022-07-04T10:30:04;4.18;;;1.35;;
66523;SDS011;53350;52.210;5.160;2022-07-04T10:32:32;6.88;;;1.48;;
66523;SDS011;53350;52.210;5.160;2022-07-04T10:35:01;3.17;;;1.10;;
66523;SDS011;53350;52.210;5.160;2022-07-04T10:40:41;5.80;;;1.30;;
66523;SDS011;53350;52.210;5.160;2022-07-04T10:46:26;5.93;;;1.27;;
66523;SDS011;53350;52.210;5.160;2022-07-04T10:48:58;5.90;;;1.30;;
66523;SDS011;53350;52.210;5.160;2022-07-04T10:51:34;3.97;;;1.10;;
66523;SDS011;53350;52.210;5.160;2022-07-04T10:54:05;3.83;;;1.25;;
66523;SDS011;53350;52.210;5.160;2022-07-04T10:59:20;4.22;;;1.20;;
66523;SDS011;53350;52.210;5.160;2022-07-04T11:01:51;7.25;;;1.23;;
66523;SDS011;53350;52.210;5.160;2022-07-04T11:07:14;4.07;;;1.20;;
66523;SDS011;53350;52.210;5.160;2022-07-04T11:09:42;2.42;;;1.10;;
66523;SDS011;53350;52.210;5.160;2022-07-04T11:12:09;1.42;;;0.93;;
66523;SDS011;53350;52.210;5.160;2022-07-04T11:14:37;3.92;;;1.25;;
66523;SDS011;53350;52.210;5.160;2022-07-04T11:17:05;6.53;;;1.30;;
66523;SDS011;53350;52.210;5.160;2022-07-04T11:21:59;2.78;;;1.20;;
66523;SDS011;53350;52.210;5.160;2022-07-04T11:24:27;6.43;;;1.50;;
66523;SDS011;53350;52.210;5.160;2022-07-04T11:26:54;2.83;;;1.20;;
66523;SDS011;53350;52.210;5.160;2022-07-04T11:29:20;3.15;;;1.35;;
66523;SDS011;53350;52.210;5.160;2022-07-04T11:31:48;4.43;;;1.40;;
66523;SDS011;53350;52.210;5.160;2022-07-04T11:34:15;2.35;;;1.08;;
66523;SDS011;53350;52.210;5.160;2022-07-04T11:36:42;3.28;;;0.95;;
66523;SDS011;53350;52.210;5.160;2022-07-04T11:39:10;4.95;;;1.17;;
66523;SDS011;53350;52.210;5.160;2022-07-04T11:44:24;6.05;;;1.33;;
66523;SDS011;53350;52.210;5.160;2022-07-04T11:47:10;4.18;;;1.13;;
66523;SDS011;53350;52.210;5.160;2022-07-04T11:49:42;3.72;;;1.10;;
66523;SDS011;53350;52.210;5.160;2022-07-04T11:52:09;4.47;;;1.20;;
66523;SDS011;53350;52.210;5.160;2022-07-04T11:54:37;5.10;;;1.02;;
66523;SDS011;53350;52.210;5.160;2022-07-04T11:57:19;1.90;;;1.00;;
66523;SDS011;53350;52.210;5.160;2022-07-04T11:59:52;5.47;;;1.20;;
66523;SDS011;53350;52.210;5.160;2022-07-04T12:02:20;2.83;;;0.90;;
66523;SDS011;53350;52.210;5.160;2022-07-04T12:04:46;3.92;;;1.30;;
66523;SDS011;53350;52.210;5.160;2022-07-04T12:07:13;2.63;;;1.20;;
66523;SDS011;53350;52.210;5.160;2022-07-04T12:09:41;3.25;;;0.93;;
66523;SDS011;53350;52.210;5.160;2022-07-04T12:12:09;2.85;;;1.10;;
66523;SDS011;53350;52.210;5.160;2022-07-04T12:14:37;1.95;;;1.10;;
66523;SDS011;53350;52.210;5.160;2022-07-04T12:17:14;3.33;;;1.20;;
66523;SDS011;53350;52.210;5.160;2022-07-04T12:19:49;2.42;;;0.90;;
66523;SDS011;53350;52.210;5.160;2022-07-04T12:22:30;5.10;;;1.27;;
66523;SDS011;53350;52.210;5.160;2022-07-04T12:24:59;4.07;;;1.23;;
66523;SDS011;53350;52.210;5.160;2022-07-04T12:29:56;6.00;;;1.57;;
66523;SDS011;53350;52.210;5.160;2022-07-04T12:32:23;6.18;;;1.33;;
66523;SDS011;53350;52.210;5.160;2022-07-04T12:35:09;7.72;;;1.27;;
66523;SDS011;53350;52.210;5.160;2022-07-04T12:37:35;5.45;;;1.45;;
66523;SDS011;53350;52.210;5.160;2022-07-04T12:40:06;5.38;;;1.25;;
66523;SDS011;53350;52.210;5.160;2022-07-04T12:42:33;2.85;;;1.10;;
66523;SDS011;53350;52.210;5.160;2022-07-04T12:45:05;5.82;;;1.30;;
66523;SDS011;53350;52.210;5.160;2022-07-04T12:47:32;3.45;;;1.30;;
66523;SDS011;53350;52.210;5.160;2022-07-04T12:49:59;4.22;;;1.10;;
66523;SDS011;53350;52.210;5.160;2022-07-04T12:52:26;4.53;;;1.35;;
66523;SDS011;53350;52.210;5.160;2022-07-04T12:57:28;2.75;;;1.10;;
66523;SDS011;53350;52.210;5.160;2022-07-04T12:59:55;2.45;;;1.00;;
66523;SDS011;53350;52.210;5.160;2022-07-04T13:02:22;6.50;;;1.48;;
66523;SDS011;53350;52.210;5.160;2022-07-04T13:04:49;4.10;;;1.17;;
66523;SDS011;53350;52.210;5.160;2022-07-04T13:07:16;6.45;;;1.30;;
66523;SDS011;53350;52.210;5.160;2022-07-04T13:09:44;2.75;;;1.13;;
66523;SDS011;53350;52.210;5.160;2022-07-04T13:14:50;4.22;;;1.20;;
66523;SDS011;53350;52.210;5.160;2022-07-04T13:17:17;5.10;;;1.35;;
66523;SDS011;53350;52.210;5.160;2022-07-04T13:19:45;4.30;;;1.35;;
66523;SDS011;53350;52.210;5.160;2022-07-04T13:22:12;3.78;;;1.27;;
66523;SDS011;53350;52.210;5.160;2022-07-04T13:24:38;4.28;;;1.10;;
66523;SDS011;53350;52.210;5.160;2022-07-04T13:27:05;5.05;;;1.45;;
66523;SDS011;53350;52.210;5.160;2022-07-04T13:29:31;4.47;;;1.10;;
66523;SDS011;53350;52.210;5.160;2022-07-04T13:31:58;3.40;;;1.20;;
66523;SDS011;53350;52.210;5.160;2022-07-04T13:34:24;4.18;;;1.10;;
66523;SDS011;53350;52.210;5.160;2022-07-04T13:36:52;7.22;;;1.50;;
66523;SDS011;53350;52.210;5.160;2022-07-04T13:39:20;8.85;;;1.33;;
66523;SDS011;53350;52.210;5.160;2022-07-04T13:41:46;3.42;;;1.65;;
66523;SDS011;53350;52.210;5.160;2022-07-04T13:44:12;3.33;;;1.20;;
66523;SDS011;53350;52.210;5.160;2022-07-04T13:49:07;4.45;;;1.13;;
66523;SDS011;53350;52.210;5.160;2022-07-04T13:51:34;2.03;;;1.20;;
66523;SDS011;53350;52.210;5.160;2022-07-04T13:54:03;4.10;;;1.27;;
66523;SDS011;53350;52.210;5.160;2022-07-04T13:56:29;4.57;;;1.45;;
66523;SDS011;53350;52.210;5.160;2022-07-04T13:58:56;5.47;;;1.37;;
66523;SDS011;53350;52.210;5.160;2022-07-04T14:01:23;5.68;;;1.10;;
66523;SDS011;53350;52.210;5.160;2022-07-04T14:03:49;9.30;;;1.52;;
66523;SDS011;53350;52.210;5.160;2022-07-04T14:06:16;2.90;;;1.30;;
66523;SDS011;53350;52.210;5.160;2022-07-04T14:08:43;5.13;;;1.38;;
66523;SDS011;53350;52.210;5.160;2022-07-04T14:11:11;4.68;;;1.27;;
66523;SDS011;53350;52.210;5.160;2022-07-04T14:13:38;2.50;;;1.10;;
66523;SDS011;53350;52.210;5.160;2022-07-04T14:16:05;4.43;;;1.23;;
66523;SDS011;53350;52.210;5.160;2022-07-04T14:18:31;2.63;;;1.20;;
66523;SDS011;53350;52.210;5.160;2022-07-04T14:20:58;5.60;;;1.30;;
66523;SDS011;53350;52.210;5.160;2022-07-04T14:23:24;4.38;;;1.40;;
66523;SDS011;53350;52.210;5.160;2022-07-04T14:26:06;5.10;;;1.40;;
66523;SDS011;53350;52.210;5.160;2022-07-04T14:28:36;2.30;;;1.00;;
66523;SDS011;53350;52.210;5.160;2022-07-04T14:31:02;5.05;;;1.40;;
66523;SDS011;53350;52.210;5.160;2022-07-04T14:33:29;7.78;;;1.33;;
66523;SDS011;53350;52.210;5.160;2022-07-04T14:35:55;3.72;;;1.10;;
66523;SDS011;53350;52.210;5.160;2022-07-04T14:38:22;4.32;;;1.40;;
66523;SDS011;53350;52.210;5.160;2022-07-04T14:40:48;3.20;;;1.40;;
66523;SDS011;53350;52.210;5.160;2022-07-04T14:43:15;4.60;;;1.38;;
66523;SDS011;53350;52.210;5.160;2022-07-04T14:45:44;2.72;;;1.30;;
66523;SDS011;53350;52.210;5.160;2022-07-04T14:48:12;1.90;;;1.10;;
66523;SDS011;53350;52.210;5.160;2022-07-04T14:50:38;2.92;;;1.20;;
66523;SDS011;53350;52.210;5.160;2022-07-04T14:53:05;2.80;;;1.10;;
66523;SDS011;53350;52.210;5.160;2022-07-04T14:55:31;2.50;;;1.30;;
66523;SDS011;53350;52.210;5.160;2022-07-04T14:57:58;5.28;;;1.27;;
66523;SDS011;53350;52.210;5.160;2022-07-04T15:00:24;4.20;;;0.98;;
66523;SDS011;53350;52.210;5.160;2022-07-04T15:02:53;3.30;;;1.30;;
66523;SDS011;53350;52.210;5.160;2022-07-04T15:05:19;3.33;;;1.10;;
66523;SDS011;53350;52.210;5.160;2022-07-04T15:07:46;3.40;;;1.10;;
66523;SDS011;53350;52.210;5.160;2022-07-04T15:10:12;5.05;;;1.40;;
66523;SDS011;53350;52.210;5.160;2022-07-04T15:12:38;4.72;;;1.20;;
66523;SDS011;53350;52.210;5.160;2022-07-04T15:15:05;4.13;;;1.40;;
66523;SDS011;53350;52.210;5.160;2022-07-04T15:17:33;4.57;;;1.30;;
66523;SDS011;53350;52.210;5.160;2022-07-04T15:20:02;6.32;;;1.38;;